sensor_id;sensor_type;location;lat;lon;timestamp;P1;durP1;ratioP1;P2;durP2;ratioP2
57025;SDS011;43961;52.940;6.834;2024-02-21T00:01:53;78.85;;;34.28;;
57025;SDS011;43961;52.940;6.834;2024-02-21T00:04:19;83.03;;;34.70;;
57025;SDS011;43961;52.940;6.834;2024-02-21T00:06:44;68.57;;;35.00;;
57025;SDS011;43961;52.940;6.834;2024-02-21T00:09:10;77.30;;;34.50;;
57025;SDS011;43961;52.940;6.834;2024-02-21T00:11:36;71.32;;;35.03;;
57025;SDS011;43961;52.940;6.834;2024-02-21T00:14:01;74.25;;;36.92;;
57025;SDS011;43961;52.940;6.834;2024-02-21T00:16:28;69.82;;;34.25;;
57025;SDS011;43961;52.940;6.834;2024-02-21T00:18:53;98.55;;;35.25;;
57025;SDS011;43961;52.940;6.834;2024-02-21T00:21:19;69.85;;;35.55;;
57025;SDS011;43961;52.940;6.834;2024-02-21T00:23:44;65.95;;;33.28;;
57025;SDS011;43961;52.940;6.834;2024-02-21T00:26:15;66.80;;;32.88;;
57025;SDS011;43961;52.940;6.834;2024-02-21T00:28:41;69.57;;;33.35;;
57025;SDS011;43961;52.940;6.834;2024-02-21T00:31:06;64.55;;;34.88;;
57025;SDS011;43961;52.940;6.834;2024-02-21T00:33:32;64.72;;;31.30;;
57025;SDS011;43961;52.940;6.834;2024-02-21T00:35:57;62.47;;;30.83;;
57025;SDS011;43961;52.940;6.834;2024-02-21T00:38:23;58.72;;;30.60;;
57025;SDS011;43961;52.940;6.834;2024-02-21T00:40:49;62.55;;;30.08;;
57025;SDS011;43961;52.940;6.834;2024-02-21T00:43:14;70.13;;;30.80;;
57025;SDS011;43961;52.940;6.834;2024-02-21T00:45:40;57.88;;;28.40;;
57025;SDS011;43961;52.940;6.834;2024-02-21T00:48:06;65.20;;;29.67;;
57025;SDS011;43961;52.940;6.834;2024-02-21T00:50:32;51.17;;;28.58;;
57025;SDS011;43961;52.940;6.834;2024-02-21T00:52:57;64.95;;;27.85;;
57025;SDS011;43961;52.940;6.834;2024-02-21T00:55:23;69.35;;;30.20;;
57025;SDS011;43961;52.940;6.834;2024-02-21T00:57:49;57.30;;;27.30;;
57025;SDS011;43961;52.940;6.834;2024-02-21T01:00:14;64.75;;;29.80;;
57025;SDS011;43961;52.940;6.834;2024-02-21T01:02:40;67.05;;;29.38;;
57025;SDS011;43961;52.940;6.834;2024-02-21T01:05:06;60.63;;;31.80;;
57025;SDS011;43961;52.940;6.834;2024-02-21T01:07:32;64.10;;;30.85;;
57025;SDS011;43961;52.940;6.834;2024-02-21T01:09:59;64.78;;;30.20;;
57025;SDS011;43961;52.940;6.834;2024-02-21T01:12:25;61.55;;;32.28;;
57025;SDS011;43961;52.940;6.834;2024-02-21T01:14:50;68.78;;;32.63;;
57025;SDS011;43961;52.940;6.834;2024-02-21T01:17:16;61.53;;;31.35;;
57025;SDS011;43961;52.940;6.834;2024-02-21T01:19:42;63.38;;;31.33;;
57025;SDS011;43961;52.940;6.834;2024-02-21T01:22:07;72.82;;;31.80;;
57025;SDS011;43961;52.940;6.834;2024-02-21T01:24:33;61.03;;;31.30;;
57025;SDS011;43961;52.940;6.834;2024-02-21T01:26:59;62.88;;;29.65;;
57025;SDS011;43961;52.940;6.834;2024-02-21T01:29:24;61.53;;;29.50;;
57025;SDS011;43961;52.940;6.834;2024-02-21T01:31:50;71.95;;;29.80;;
57025;SDS011;43961;52.940;6.834;2024-02-21T01:34:15;63.90;;;28.98;;
57025;SDS011;43961;52.940;6.834;2024-02-21T01:36:41;57.70;;;26.80;;
57025;SDS011;43961;52.940;6.834;2024-02-21T01:39:07;62.67;;;27.35;;
57025;SDS011;43961;52.940;6.834;2024-02-21T01:41:33;59.25;;;26.77;;
57025;SDS011;43961;52.940;6.834;2024-02-21T01:43:59;62.15;;;25.75;;
57025;SDS011;43961;52.940;6.834;2024-02-21T01:46:25;50.70;;;25.90;;
57025;SDS011;43961;52.940;6.834;2024-02-21T01:48:54;59.13;;;28.08;;
57025;SDS011;43961;52.940;6.834;2024-02-21T01:51:21;56.43;;;26.07;;
57025;SDS011;43961;52.940;6.834;2024-02-21T01:53:46;54.53;;;24.80;;
57025;SDS011;43961;52.940;6.834;2024-02-21T01:56:12;57.63;;;25.92;;
57025;SDS011;43961;52.940;6.834;2024-02-21T01:58:39;59.63;;;26.40;;
57025;SDS011;43961;52.940;6.834;2024-02-21T02:01:07;61.42;;;28.25;;
57025;SDS011;43961;52.940;6.834;2024-02-21T02:03:33;78.95;;;28.55;;
57025;SDS011;43961;52.940;6.834;2024-02-21T02:05:59;61.78;;;27.02;;
57025;SDS011;43961;52.940;6.834;2024-02-21T02:08:25;68.05;;;29.67;;
57025;SDS011;43961;52.940;6.834;2024-02-21T02:10:51;59.63;;;26.48;;
57025;SDS011;43961;52.940;6.834;2024-02-21T02:13:17;59.17;;;26.52;;
57025;SDS011;43961;52.940;6.834;2024-02-21T02:15:43;62.85;;;29.58;;
57025;SDS011;43961;52.940;6.834;2024-02-21T02:18:11;79.72;;;29.08;;
57025;SDS011;43961;52.940;6.834;2024-02-21T02:20:37;80.77;;;29.50;;
57025;SDS011;43961;52.940;6.834;2024-02-21T02:25:37;72.28;;;29.10;;
57025;SDS011;43961;52.940;6.834;2024-02-21T02:28:03;66.43;;;29.25;;
57025;SDS011;43961;52.940;6.834;2024-02-21T02:30:34;71.43;;;29.98;;
57025;SDS011;43961;52.940;6.834;2024-02-21T02:33:04;75.68;;;31.05;;
57025;SDS011;43961;52.940;6.834;2024-02-21T02:35:30;67.10;;;28.17;;
57025;SDS011;43961;52.940;6.834;2024-02-21T02:37:56;66.03;;;29.17;;
57025;SDS011;43961;52.940;6.834;2024-02-21T02:40:22;67.43;;;31.30;;
57025;SDS011;43961;52.940;6.834;2024-02-21T02:42:48;66.28;;;29.48;;
57025;SDS011;43961;52.940;6.834;2024-02-21T02:45:17;53.88;;;26.40;;
57025;SDS011;43961;52.940;6.834;2024-02-21T02:47:46;66.72;;;27.23;;
57025;SDS011;43961;52.940;6.834;2024-02-21T02:50:12;54.92;;;27.77;;
57025;SDS011;43961;52.940;6.834;2024-02-21T02:52:38;52.80;;;27.52;;
57025;SDS011;43961;52.940;6.834;2024-02-21T02:55:04;53.95;;;27.13;;
57025;SDS011;43961;52.940;6.834;2024-02-21T02:57:31;61.35;;;26.75;;
57025;SDS011;43961;52.940;6.834;2024-02-21T02:59:56;70.60;;;28.20;;
57025;SDS011;43961;52.940;6.834;2024-02-21T03:02:22;60.95;;;27.67;;
57025;SDS011;43961;52.940;6.834;2024-02-21T03:04:49;54.67;;;27.83;;
57025;SDS011;43961;52.940;6.834;2024-02-21T03:07:15;56.28;;;26.52;;
57025;SDS011;43961;52.940;6.834;2024-02-21T03:09:41;60.10;;;28.60;;
57025;SDS011;43961;52.940;6.834;2024-02-21T03:12:08;67.13;;;29.60;;
57025;SDS011;43961;52.940;6.834;2024-02-21T03:14:34;60.95;;;28.23;;
57025;SDS011;43961;52.940;6.834;2024-02-21T03:17:00;59.78;;;28.52;;
57025;SDS011;43961;52.940;6.834;2024-02-21T03:19:27;58.00;;;27.17;;
57025;SDS011;43961;52.940;6.834;2024-02-21T03:21:53;50.53;;;27.15;;
57025;SDS011;43961;52.940;6.834;2024-02-21T03:24:19;58.47;;;26.80;;
57025;SDS011;43961;52.940;6.834;2024-02-21T03:26:46;59.58;;;27.58;;
57025;SDS011;43961;52.940;6.834;2024-02-21T03:29:14;55.78;;;26.17;;
57025;SDS011;43961;52.940;6.834;2024-02-21T03:31:41;63.60;;;27.13;;
57025;SDS011;43961;52.940;6.834;2024-02-21T03:34:08;64.72;;;27.33;;
57025;SDS011;43961;52.940;6.834;2024-02-21T03:36:35;66.72;;;25.63;;
57025;SDS011;43961;52.940;6.834;2024-02-21T03:39:00;48.53;;;25.65;;
57025;SDS011;43961;52.940;6.834;2024-02-21T03:41:26;56.60;;;25.55;;
57025;SDS011;43961;52.940;6.834;2024-02-21T03:43:52;46.88;;;25.00;;
57025;SDS011;43961;52.940;6.834;2024-02-21T03:46:18;46.22;;;23.85;;
57025;SDS011;43961;52.940;6.834;2024-02-21T03:48:43;44.35;;;22.33;;
57025;SDS011;43961;52.940;6.834;2024-02-21T03:51:10;60.80;;;23.02;;
57025;SDS011;43961;52.940;6.834;2024-02-21T03:53:36;51.85;;;21.73;;
57025;SDS011;43961;52.940;6.834;2024-02-21T03:56:01;50.88;;;20.92;;
57025;SDS011;43961;52.940;6.834;2024-02-21T03:58:29;35.65;;;19.73;;
57025;SDS011;43961;52.940;6.834;2024-02-21T04:00:55;42.05;;;20.15;;
57025;SDS011;43961;52.940;6.834;2024-02-21T04:03:21;48.38;;;19.08;;
57025;SDS011;43961;52.940;6.834;2024-02-21T04:05:46;41.95;;;17.88;;
57025;SDS011;43961;52.940;6.834;2024-02-21T04:08:13;42.53;;;18.52;;
57025;SDS011;43961;52.940;6.834;2024-02-21T04:10:39;43.92;;;16.98;;
57025;SDS011;43961;52.940;6.834;2024-02-21T04:13:06;41.13;;;17.27;;
57025;SDS011;43961;52.940;6.834;2024-02-21T04:15:33;60.50;;;18.70;;
57025;SDS011;43961;52.940;6.834;2024-02-21T04:17:59;44.17;;;16.60;;
57025;SDS011;43961;52.940;6.834;2024-02-21T04:20:24;39.55;;;16.63;;
57025;SDS011;43961;52.940;6.834;2024-02-21T04:22:50;35.80;;;17.75;;
57025;SDS011;43961;52.940;6.834;2024-02-21T04:25:15;40.38;;;18.05;;
57025;SDS011;43961;52.940;6.834;2024-02-21T04:27:41;38.95;;;16.90;;
57025;SDS011;43961;52.940;6.834;2024-02-21T04:30:07;49.75;;;19.27;;
57025;SDS011;43961;52.940;6.834;2024-02-21T04:32:34;48.72;;;19.30;;
57025;SDS011;43961;52.940;6.834;2024-02-21T04:35:00;49.58;;;18.65;;
57025;SDS011;43961;52.940;6.834;2024-02-21T04:37:26;46.40;;;18.58;;
57025;SDS011;43961;52.940;6.834;2024-02-21T04:39:52;40.03;;;17.55;;
57025;SDS011;43961;52.940;6.834;2024-02-21T04:42:17;36.03;;;17.95;;
57025;SDS011;43961;52.940;6.834;2024-02-21T04:44:43;43.53;;;19.35;;
57025;SDS011;43961;52.940;6.834;2024-02-21T04:47:08;50.95;;;19.08;;
57025;SDS011;43961;52.940;6.834;2024-02-21T04:49:34;58.63;;;21.33;;
57025;SDS011;43961;52.940;6.834;2024-02-21T04:52:00;60.35;;;20.92;;
57025;SDS011;43961;52.940;6.834;2024-02-21T04:54:26;57.33;;;20.20;;
57025;SDS011;43961;52.940;6.834;2024-02-21T04:56:52;55.58;;;21.27;;
57025;SDS011;43961;52.940;6.834;2024-02-21T04:59:17;63.88;;;22.85;;
57025;SDS011;43961;52.940;6.834;2024-02-21T05:01:43;61.35;;;24.50;;
57025;SDS011;43961;52.940;6.834;2024-02-21T05:04:09;51.10;;;24.25;;
57025;SDS011;43961;52.940;6.834;2024-02-21T05:06:38;60.00;;;24.98;;
57025;SDS011;43961;52.940;6.834;2024-02-21T05:09:04;59.25;;;24.40;;
57025;SDS011;43961;52.940;6.834;2024-02-21T05:11:30;60.13;;;25.83;;
57025;SDS011;43961;52.940;6.834;2024-02-21T05:13:56;72.47;;;24.48;;
57025;SDS011;43961;52.940;6.834;2024-02-21T05:16:22;57.55;;;25.77;;
57025;SDS011;43961;52.940;6.834;2024-02-21T05:18:47;72.53;;;27.58;;
57025;SDS011;43961;52.940;6.834;2024-02-21T05:21:13;69.05;;;26.23;;
57025;SDS011;43961;52.940;6.834;2024-02-21T05:23:39;76.90;;;30.40;;
57025;SDS011;43961;52.940;6.834;2024-02-21T05:26:05;78.05;;;29.35;;
57025;SDS011;43961;52.940;6.834;2024-02-21T05:28:31;94.78;;;32.63;;
57025;SDS011;43961;52.940;6.834;2024-02-21T05:30:56;89.00;;;32.78;;
57025;SDS011;43961;52.940;6.834;2024-02-21T05:33:22;88.40;;;32.80;;
57025;SDS011;43961;52.940;6.834;2024-02-21T05:35:48;95.93;;;33.75;;
57025;SDS011;43961;52.940;6.834;2024-02-21T05:38:14;95.22;;;35.63;;
57025;SDS011;43961;52.940;6.834;2024-02-21T05:40:40;97.53;;;37.20;;
57025;SDS011;43961;52.940;6.834;2024-02-21T05:43:07;108.13;;;36.35;;
57025;SDS011;43961;52.940;6.834;2024-02-21T05:45:33;108.88;;;37.20;;
57025;SDS011;43961;52.940;6.834;2024-02-21T05:48:00;102.30;;;35.42;;
57025;SDS011;43961;52.940;6.834;2024-02-21T05:50:27;94.43;;;36.63;;
57025;SDS011;43961;52.940;6.834;2024-02-21T05:52:56;99.68;;;35.70;;
57025;SDS011;43961;52.940;6.834;2024-02-21T05:55:22;101.63;;;36.33;;
57025;SDS011;43961;52.940;6.834;2024-02-21T05:57:48;84.38;;;34.08;;
57025;SDS011;43961;52.940;6.834;2024-02-21T06:00:14;107.10;;;36.15;;
57025;SDS011;43961;52.940;6.834;2024-02-21T06:02:40;98.90;;;35.38;;
57025;SDS011;43961;52.940;6.834;2024-02-21T06:05:07;122.68;;;37.72;;
57025;SDS011;43961;52.940;6.834;2024-02-21T06:07:34;98.15;;;35.47;;
57025;SDS011;43961;52.940;6.834;2024-02-21T06:10:01;120.38;;;37.25;;
57025;SDS011;43961;52.940;6.834;2024-02-21T06:12:28;99.00;;;36.15;;
57025;SDS011;43961;52.940;6.834;2024-02-21T06:14:53;110.75;;;37.92;;
57025;SDS011;43961;52.940;6.834;2024-02-21T06:17:19;105.88;;;35.35;;
57025;SDS011;43961;52.940;6.834;2024-02-21T06:19:45;110.88;;;36.85;;
57025;SDS011;43961;52.940;6.834;2024-02-21T06:22:11;90.20;;;34.60;;
57025;SDS011;43961;52.940;6.834;2024-02-21T06:24:37;90.43;;;34.95;;
57025;SDS011;43961;52.940;6.834;2024-02-21T06:27:03;111.50;;;36.42;;
57025;SDS011;43961;52.940;6.834;2024-02-21T06:29:31;104.10;;;34.60;;
57025;SDS011;43961;52.940;6.834;2024-02-21T06:31:57;92.28;;;33.20;;
57025;SDS011;43961;52.940;6.834;2024-02-21T06:34:23;88.85;;;33.22;;
57025;SDS011;43961;52.940;6.834;2024-02-21T06:36:49;95.97;;;35.05;;
57025;SDS011;43961;52.940;6.834;2024-02-21T06:39:19;98.88;;;31.75;;
57025;SDS011;43961;52.940;6.834;2024-02-21T06:41:44;83.72;;;31.85;;
57025;SDS011;43961;52.940;6.834;2024-02-21T06:44:10;91.53;;;33.95;;
57025;SDS011;43961;52.940;6.834;2024-02-21T06:46:35;82.65;;;32.47;;
57025;SDS011;43961;52.940;6.834;2024-02-21T06:49:01;79.95;;;30.85;;
57025;SDS011;43961;52.940;6.834;2024-02-21T06:51:30;95.38;;;30.70;;
57025;SDS011;43961;52.940;6.834;2024-02-21T06:53:56;70.82;;;29.02;;
57025;SDS011;43961;52.940;6.834;2024-02-21T06:56:23;84.07;;;29.73;;
57025;SDS011;43961;52.940;6.834;2024-02-21T06:58:57;78.75;;;31.00;;
57025;SDS011;43961;52.940;6.834;2024-02-21T07:01:25;87.65;;;32.17;;
57025;SDS011;43961;52.940;6.834;2024-02-21T07:03:51;88.32;;;30.48;;
57025;SDS011;43961;52.940;6.834;2024-02-21T07:06:18;83.40;;;28.60;;
57025;SDS011;43961;52.940;6.834;2024-02-21T07:08:43;102.55;;;31.25;;
57025;SDS011;43961;52.940;6.834;2024-02-21T07:11:09;94.00;;;32.17;;
57025;SDS011;43961;52.940;6.834;2024-02-21T07:13:35;79.18;;;31.63;;
57025;SDS011;43961;52.940;6.834;2024-02-21T07:16:01;81.95;;;34.08;;
57025;SDS011;43961;52.940;6.834;2024-02-21T07:18:27;88.22;;;32.78;;
57025;SDS011;43961;52.940;6.834;2024-02-21T07:20:52;106.50;;;35.55;;
57025;SDS011;43961;52.940;6.834;2024-02-21T07:23:19;97.18;;;35.33;;
57025;SDS011;43961;52.940;6.834;2024-02-21T07:25:46;86.22;;;34.70;;
57025;SDS011;43961;52.940;6.834;2024-02-21T07:28:11;76.38;;;33.65;;
57025;SDS011;43961;52.940;6.834;2024-02-21T07:30:38;94.38;;;34.80;;
57025;SDS011;43961;52.940;6.834;2024-02-21T07:33:04;90.85;;;36.00;;
57025;SDS011;43961;52.940;6.834;2024-02-21T07:35:30;85.68;;;35.85;;
57025;SDS011;43961;52.940;6.834;2024-02-21T07:37:55;92.78;;;38.03;;
57025;SDS011;43961;52.940;6.834;2024-02-21T07:40:22;94.18;;;38.50;;
57025;SDS011;43961;52.940;6.834;2024-02-21T07:42:48;122.30;;;40.08;;
57025;SDS011;43961;52.940;6.834;2024-02-21T07:45:14;108.07;;;40.10;;
57025;SDS011;43961;52.940;6.834;2024-02-21T07:47:39;83.60;;;38.88;;
57025;SDS011;43961;52.940;6.834;2024-02-21T07:50:05;84.40;;;38.60;;
57025;SDS011;43961;52.940;6.834;2024-02-21T07:52:32;73.97;;;40.03;;
57025;SDS011;43961;52.940;6.834;2024-02-21T07:54:57;87.32;;;38.15;;
57025;SDS011;43961;52.940;6.834;2024-02-21T07:57:23;98.45;;;41.90;;
57025;SDS011;43961;52.940;6.834;2024-02-21T07:59:49;86.78;;;41.38;;
57025;SDS011;43961;52.940;6.834;2024-02-21T08:02:14;97.95;;;40.47;;
57025;SDS011;43961;52.940;6.834;2024-02-21T08:04:40;91.50;;;39.33;;
57025;SDS011;43961;52.940;6.834;2024-02-21T08:07:06;97.20;;;42.17;;
57025;SDS011;43961;52.940;6.834;2024-02-21T08:09:32;87.90;;;39.28;;
57025;SDS011;43961;52.940;6.834;2024-02-21T08:11:57;92.18;;;40.53;;
57025;SDS011;43961;52.940;6.834;2024-02-21T08:14:23;80.82;;;38.72;;
57025;SDS011;43961;52.940;6.834;2024-02-21T08:16:50;84.28;;;39.97;;
57025;SDS011;43961;52.940;6.834;2024-02-21T08:19:18;86.80;;;37.00;;
57025;SDS011;43961;52.940;6.834;2024-02-21T08:21:43;79.60;;;38.08;;
57025;SDS011;43961;52.940;6.834;2024-02-21T08:24:12;86.72;;;40.08;;
57025;SDS011;43961;52.940;6.834;2024-02-21T08:26:44;74.22;;;39.45;;
57025;SDS011;43961;52.940;6.834;2024-02-21T08:29:10;87.50;;;41.00;;
57025;SDS011;43961;52.940;6.834;2024-02-21T08:31:37;89.18;;;41.55;;
57025;SDS011;43961;52.940;6.834;2024-02-21T08:34:02;87.22;;;43.47;;
57025;SDS011;43961;52.940;6.834;2024-02-21T08:36:29;99.35;;;44.85;;
57025;SDS011;43961;52.940;6.834;2024-02-21T08:38:56;92.20;;;47.13;;
57025;SDS011;43961;52.940;6.834;2024-02-21T08:41:22;87.13;;;43.22;;
57025;SDS011;43961;52.940;6.834;2024-02-21T08:43:50;89.40;;;44.10;;
57025;SDS011;43961;52.940;6.834;2024-02-21T08:46:16;95.57;;;44.63;;
57025;SDS011;43961;52.940;6.834;2024-02-21T08:48:42;90.05;;;46.72;;
57025;SDS011;43961;52.940;6.834;2024-02-21T08:51:09;111.18;;;50.70;;
57025;SDS011;43961;52.940;6.834;2024-02-21T08:53:34;98.90;;;47.22;;
57025;SDS011;43961;52.940;6.834;2024-02-21T08:56:00;96.20;;;49.85;;
57025;SDS011;43961;52.940;6.834;2024-02-21T08:58:25;96.82;;;48.72;;
57025;SDS011;43961;52.940;6.834;2024-02-21T09:00:51;87.05;;;49.22;;
57025;SDS011;43961;52.940;6.834;2024-02-21T09:03:17;98.05;;;51.90;;
57025;SDS011;43961;52.940;6.834;2024-02-21T09:05:45;105.93;;;52.40;;
57025;SDS011;43961;52.940;6.834;2024-02-21T09:08:11;102.32;;;51.67;;
57025;SDS011;43961;52.940;6.834;2024-02-21T09:10:37;92.22;;;47.78;;
57025;SDS011;43961;52.940;6.834;2024-02-21T09:13:03;92.70;;;48.67;;
57025;SDS011;43961;52.940;6.834;2024-02-21T09:15:29;99.15;;;49.42;;
57025;SDS011;43961;52.940;6.834;2024-02-21T09:17:54;104.78;;;51.97;;
57025;SDS011;43961;52.940;6.834;2024-02-21T09:20:20;93.03;;;50.72;;
57025;SDS011;43961;52.940;6.834;2024-02-21T09:22:45;92.45;;;49.13;;
57025;SDS011;43961;52.940;6.834;2024-02-21T09:25:11;100.75;;;50.85;;
57025;SDS011;43961;52.940;6.834;2024-02-21T09:27:38;100.03;;;52.42;;
57025;SDS011;43961;52.940;6.834;2024-02-21T09:30:04;105.10;;;49.05;;
57025;SDS011;43961;52.940;6.834;2024-02-21T09:32:32;104.07;;;51.00;;
57025;SDS011;43961;52.940;6.834;2024-02-21T09:34:58;80.95;;;48.55;;
57025;SDS011;43961;52.940;6.834;2024-02-21T09:37:23;99.85;;;52.63;;
57025;SDS011;43961;52.940;6.834;2024-02-21T09:39:49;92.57;;;48.45;;
57025;SDS011;43961;52.940;6.834;2024-02-21T09:42:18;92.93;;;49.67;;
57025;SDS011;43961;52.940;6.834;2024-02-21T09:44:45;97.30;;;50.88;;
57025;SDS011;43961;52.940;6.834;2024-02-21T09:47:19;101.38;;;52.92;;
57025;SDS011;43961;52.940;6.834;2024-02-21T09:49:49;93.13;;;50.42;;
57025;SDS011;43961;52.940;6.834;2024-02-21T09:52:17;104.85;;;50.72;;
57025;SDS011;43961;52.940;6.834;2024-02-21T09:54:45;94.65;;;51.92;;
57025;SDS011;43961;52.940;6.834;2024-02-21T09:57:13;97.47;;;47.58;;
57025;SDS011;43961;52.940;6.834;2024-02-21T09:59:40;92.60;;;51.38;;
57025;SDS011;43961;52.940;6.834;2024-02-21T10:02:07;89.10;;;50.90;;
57025;SDS011;43961;52.940;6.834;2024-02-21T10:04:33;93.18;;;50.97;;
57025;SDS011;43961;52.940;6.834;2024-02-21T10:06:59;84.85;;;49.65;;
57025;SDS011;43961;52.940;6.834;2024-02-21T10:09:25;96.93;;;50.03;;
57025;SDS011;43961;52.940;6.834;2024-02-21T10:11:54;88.55;;;47.80;;
57025;SDS011;43961;52.940;6.834;2024-02-21T10:14:20;76.93;;;46.25;;
57025;SDS011;43961;52.940;6.834;2024-02-21T10:16:47;88.05;;;49.60;;
57025;SDS011;43961;52.940;6.834;2024-02-21T10:19:17;86.38;;;47.33;;
57025;SDS011;43961;52.940;6.834;2024-02-21T10:21:43;84.68;;;47.58;;
57025;SDS011;43961;52.940;6.834;2024-02-21T10:24:10;86.53;;;46.58;;
57025;SDS011;43961;52.940;6.834;2024-02-21T10:26:37;89.38;;;50.47;;
57025;SDS011;43961;52.940;6.834;2024-02-21T10:29:03;94.35;;;46.75;;
57025;SDS011;43961;52.940;6.834;2024-02-21T10:31:29;81.97;;;47.05;;
57025;SDS011;43961;52.940;6.834;2024-02-21T10:33:58;79.97;;;45.70;;
57025;SDS011;43961;52.940;6.834;2024-02-21T10:36:28;81.78;;;45.75;;
57025;SDS011;43961;52.940;6.834;2024-02-21T10:38:54;77.80;;;42.65;;
57025;SDS011;43961;52.940;6.834;2024-02-21T10:41:21;78.65;;;43.97;;
57025;SDS011;43961;52.940;6.834;2024-02-21T10:43:49;83.75;;;41.78;;
57025;SDS011;43961;52.940;6.834;2024-02-21T10:46:20;76.88;;;41.40;;
57025;SDS011;43961;52.940;6.834;2024-02-21T10:48:47;72.38;;;40.28;;
57025;SDS011;43961;52.940;6.834;2024-02-21T10:51:19;70.72;;;41.22;;
57025;SDS011;43961;52.940;6.834;2024-02-21T10:56:34;78.32;;;37.08;;
57025;SDS011;43961;52.940;6.834;2024-02-21T11:01:32;61.95;;;35.92;;
57025;SDS011;43961;52.940;6.834;2024-02-21T11:04:07;63.40;;;35.08;;
57025;SDS011;43961;52.940;6.834;2024-02-21T11:06:35;69.60;;;33.47;;
57025;SDS011;43961;52.940;6.834;2024-02-21T11:09:06;58.70;;;36.70;;
57025;SDS011;43961;52.940;6.834;2024-02-21T11:11:34;61.28;;;34.28;;
57025;SDS011;43961;52.940;6.834;2024-02-21T11:14:07;59.83;;;32.47;;
57025;SDS011;43961;52.940;6.834;2024-02-21T11:16:40;60.72;;;32.08;;
57025;SDS011;43961;52.940;6.834;2024-02-21T11:19:07;57.28;;;31.90;;
57025;SDS011;43961;52.940;6.834;2024-02-21T11:21:37;57.33;;;31.88;;
57025;SDS011;43961;52.940;6.834;2024-02-21T11:24:03;59.38;;;32.20;;
57025;SDS011;43961;52.940;6.834;2024-02-21T11:26:29;63.83;;;32.97;;
57025;SDS011;43961;52.940;6.834;2024-02-21T11:28:59;64.38;;;33.13;;
57025;SDS011;43961;52.940;6.834;2024-02-21T11:31:26;57.83;;;32.65;;
57025;SDS011;43961;52.940;6.834;2024-02-21T11:33:52;60.25;;;32.40;;
57025;SDS011;43961;52.940;6.834;2024-02-21T11:36:25;49.17;;;29.05;;
57025;SDS011;43961;52.940;6.834;2024-02-21T11:38:51;48.95;;;29.17;;
57025;SDS011;43961;52.940;6.834;2024-02-21T11:41:20;51.13;;;30.08;;
57025;SDS011;43961;52.940;6.834;2024-02-21T11:43:48;51.85;;;30.85;;
57025;SDS011;43961;52.940;6.834;2024-02-21T11:48:41;47.28;;;28.95;;
57025;SDS011;43961;52.940;6.834;2024-02-21T11:51:11;56.92;;;33.05;;
57025;SDS011;43961;52.940;6.834;2024-02-21T11:53:46;52.17;;;32.47;;
57025;SDS011;43961;52.940;6.834;2024-02-21T11:56:13;62.38;;;30.20;;
57025;SDS011;43961;52.940;6.834;2024-02-21T11:58:39;55.78;;;30.73;;
57025;SDS011;43961;52.940;6.834;2024-02-21T12:01:04;59.30;;;32.03;;
57025;SDS011;43961;52.940;6.834;2024-02-21T12:03:32;51.03;;;29.95;;
57025;SDS011;43961;52.940;6.834;2024-02-21T12:06:00;47.58;;;30.50;;
57025;SDS011;43961;52.940;6.834;2024-02-21T12:08:28;45.35;;;29.60;;
57025;SDS011;43961;52.940;6.834;2024-02-21T12:11:15;43.50;;;27.08;;
57025;SDS011;43961;52.940;6.834;2024-02-21T12:13:42;46.55;;;27.63;;
57025;SDS011;43961;52.940;6.834;2024-02-21T12:16:07;44.78;;;27.77;;
57025;SDS011;43961;52.940;6.834;2024-02-21T12:18:33;40.13;;;24.65;;
57025;SDS011;43961;52.940;6.834;2024-02-21T12:20:59;49.42;;;25.65;;
57025;SDS011;43961;52.940;6.834;2024-02-21T12:23:29;37.00;;;25.88;;
57025;SDS011;43961;52.940;6.834;2024-02-21T12:25:55;35.00;;;23.77;;
57025;SDS011;43961;52.940;6.834;2024-02-21T12:28:20;37.08;;;24.13;;
57025;SDS011;43961;52.940;6.834;2024-02-21T12:30:47;38.97;;;23.65;;
57025;SDS011;43961;52.940;6.834;2024-02-21T12:33:12;34.03;;;21.48;;
57025;SDS011;43961;52.940;6.834;2024-02-21T12:35:39;34.35;;;20.60;;
57025;SDS011;43961;52.940;6.834;2024-02-21T12:38:05;37.22;;;21.08;;
57025;SDS011;43961;52.940;6.834;2024-02-21T12:40:30;33.55;;;21.45;;
57025;SDS011;43961;52.940;6.834;2024-02-21T12:42:58;34.50;;;20.45;;
57025;SDS011;43961;52.940;6.834;2024-02-21T12:45:28;39.00;;;20.50;;
57025;SDS011;43961;52.940;6.834;2024-02-21T12:47:54;37.75;;;21.02;;
57025;SDS011;43961;52.940;6.834;2024-02-21T12:50:19;34.38;;;19.73;;
57025;SDS011;43961;52.940;6.834;2024-02-21T12:52:45;28.80;;;20.02;;
57025;SDS011;43961;52.940;6.834;2024-02-21T12:55:11;37.78;;;20.38;;
57025;SDS011;43961;52.940;6.834;2024-02-21T12:57:38;33.58;;;20.42;;
57025;SDS011;43961;52.940;6.834;2024-02-21T13:00:05;36.83;;;20.42;;
57025;SDS011;43961;52.940;6.834;2024-02-21T13:02:33;33.65;;;20.85;;
57025;SDS011;43961;52.940;6.834;2024-02-21T13:05:00;37.90;;;19.90;;
57025;SDS011;43961;52.940;6.834;2024-02-21T13:07:27;29.40;;;17.80;;
57025;SDS011;43961;52.940;6.834;2024-02-21T13:09:53;25.40;;;16.55;;
57025;SDS011;43961;52.940;6.834;2024-02-21T13:12:19;29.58;;;16.27;;
57025;SDS011;43961;52.940;6.834;2024-02-21T13:14:45;24.52;;;16.20;;
57025;SDS011;43961;52.940;6.834;2024-02-21T13:17:10;21.73;;;14.20;;
57025;SDS011;43961;52.940;6.834;2024-02-21T13:19:36;21.45;;;14.93;;
57025;SDS011;43961;52.940;6.834;2024-02-21T13:22:01;22.35;;;13.95;;
57025;SDS011;43961;52.940;6.834;2024-02-21T13:24:27;18.33;;;13.57;;
57025;SDS011;43961;52.940;6.834;2024-02-21T13:26:54;23.05;;;15.35;;
57025;SDS011;43961;52.940;6.834;2024-02-21T13:29:20;27.08;;;14.68;;
57025;SDS011;43961;52.940;6.834;2024-02-21T13:31:45;23.40;;;15.35;;
57025;SDS011;43961;52.940;6.834;2024-02-21T13:34:11;22.27;;;14.27;;
57025;SDS011;43961;52.940;6.834;2024-02-21T13:36:37;23.48;;;14.65;;
57025;SDS011;43961;52.940;6.834;2024-02-21T13:39:02;25.30;;;15.77;;
57025;SDS011;43961;52.940;6.834;2024-02-21T13:41:30;26.17;;;16.83;;
57025;SDS011;43961;52.940;6.834;2024-02-21T13:43:56;23.20;;;14.55;;
57025;SDS011;43961;52.940;6.834;2024-02-21T13:46:21;19.63;;;14.40;;
57025;SDS011;43961;52.940;6.834;2024-02-21T13:48:47;29.08;;;15.35;;
57025;SDS011;43961;52.940;6.834;2024-02-21T13:51:13;25.73;;;15.63;;
57025;SDS011;43961;52.940;6.834;2024-02-21T13:53:39;23.10;;;14.98;;
57025;SDS011;43961;52.940;6.834;2024-02-21T13:56:04;26.50;;;16.70;;
57025;SDS011;43961;52.940;6.834;2024-02-21T13:58:30;24.50;;;15.80;;
57025;SDS011;43961;52.940;6.834;2024-02-21T14:00:56;25.55;;;17.60;;
57025;SDS011;43961;52.940;6.834;2024-02-21T14:03:22;25.23;;;17.48;;
57025;SDS011;43961;52.940;6.834;2024-02-21T14:05:47;32.35;;;17.90;;
57025;SDS011;43961;52.940;6.834;2024-02-21T14:08:16;32.03;;;17.52;;
57025;SDS011;43961;52.940;6.834;2024-02-21T14:10:42;31.30;;;19.35;;
57025;SDS011;43961;52.940;6.834;2024-02-21T14:13:09;30.05;;;18.40;;
57025;SDS011;43961;52.940;6.834;2024-02-21T14:15:35;27.10;;;17.63;;
57025;SDS011;43961;52.940;6.834;2024-02-21T14:18:02;24.50;;;17.67;;
57025;SDS011;43961;52.940;6.834;2024-02-21T14:22:57;40.22;;;18.15;;
57025;SDS011;43961;52.940;6.834;2024-02-21T14:25:22;35.33;;;19.73;;
57025;SDS011;43961;52.940;6.834;2024-02-21T14:27:48;32.10;;;20.38;;
57025;SDS011;43961;52.940;6.834;2024-02-21T14:30:13;34.83;;;20.00;;